KOOA/OOA METAR and TAF weather

Enter ICAO airport designator
Station Type Date Time Source
KOOA METAR 2021/09/16 22:15 UTC NOAA

KOOA 162215Z AUTO 15009G15KT 7SM CLR 30/13 A2994 RMK AO2 T03020132


Station Type Date Time Source
KOOA Decoded METAR 2021/09/16 22:15 UTC NOAA

Oskaloosa, Oskaloosa Municipal Airport, IA, United States (KOOA) 41-13-34N 092-29-37W
Sep 16, 2021 - 06:15 PM EDT / 2021.09.16 2215 UTC
Wind: from the SSE (150 degrees) at 10 MPH (9 KT) gusting to 17 MPH (15 KT):0
Visibility: 7 mile(s):0
Sky conditions: clear
Temperature: 86.4 F (30.2 C)
Dew Point: 55.8 F (13.2 C)
Relative Humidity: 35%
Pressure (altimeter): 29.94 in. Hg (1013 hPa)
ob: KOOA 162215Z AUTO 15009G15KT 7SM CLR 30/13 A2994 RMK AO2 T03020132
cycle: 22

Station Type Date Time Source
KOOA TAF UTC NOAA

Error!

Example: see airport list